^^
Grace C. Lehan Memorial Weather Station Historical Data
Daily Summary for April 29, 2021 Units:  English    Metric   Both
Daily Weekly Monthly Yearly
  High: Low: Average:
Temperature: 54.7 °F 37.8 °F 46 °F
Dew Point: 45 °F 36 °F 41.4 °F
Humidity: 95% 68% 85%
Wind Speed: 5.1mph 0mph 1mph
Wind Gust: 14mph - -
Wind- - ENE
Pressure: 29.99 in 29.78 in -
Precipitation: 0.01 in    
 
 
Tabular Data for April 29, 2021
Time Temperature Dew Point Pressure Wind Wind Speed Wind Gust Humidity Rainfall Rate (Hourly) solar
00:04 39.9 °F 37.5 °F 29.98 in Calm     91% 0.00 in 0 W/m2
00:09 39.9 °F 37.7 °F 29.98 in Calm     91.8% 0.00 in 0 W/m2
00:14 39.8 °F 37.7 °F 29.98 in Calm     92% 0.00 in 0 W/m2
00:19 39.7 °F 37.6 °F 29.98 in Calm     92% 0.00 in 0 W/m2
00:24 39.7 °F 37.6 °F 29.98 in Calm     92% 0.00 in 0 W/m2
00:29 39.6 °F 37.5 °F 29.98 in Calm     92% 0.00 in 0 W/m2
00:34 39.5 °F 37.4 °F 29.98 in Calm     92% 0.00 in 0 W/m2
00:39 39.4 °F 37.3 °F 29.98 in Calm     92% 0.00 in 0 W/m2
00:44 39.3 °F 37.2 °F 29.98 in Calm     92% 0.00 in 0 W/m2
00:47 39.2 °F 37.1 °F 29.98 in Calm     92% 0.00 in 0 W/m2
01:00 39.1 °F 37.3 °F 29.98 in Calm     93% 0.00 in 0 W/m2
01:30 38.7 °F 36.8 °F 29.98 in Calm     93% 0.00 in 0 W/m2
02:00 38 °F 36.2 °F 29.99 in Calm     93% 0.00 in 0 W/m2
02:30 37.8 °F 36 °F 29.99 in Calm     93% 0.00 in 0 W/m2
03:00 38.3 °F 36.7 °F 29.98 in Calm     94% 0.00 in 0 W/m2
03:30 39.3 °F 37.7 °F 29.97 in Calm     94% 0.00 in 0 W/m2
04:04 39.9 °F 38.6 °F 29.97 in Calm     95% 0.00 in 0 W/m2
04:09 40 °F 38.7 °F 29.97 in Calm     95% 0.00 in 0 W/m2
04:14 40.1 °F 38.7 °F 29.97 in Calm     95% 0.00 in 0 W/m2
04:19 40.1 °F 38.8 °F 29.97 in Calm     95% 0.00 in 0 W/m2
04:24 40.2 °F 38.9 °F 29.97 in Calm     95% 0.00 in 0 W/m2
04:29 40.2 °F 38.9 °F 29.97 in Calm     95% 0.00 in 0 W/m2
04:34 40.2 °F 38.9 °F 29.98 in Calm     95% 0.00 in 0 W/m2
04:39 40.2 °F 38.9 °F 29.98 in East 0.1 mph 3 mph 95% 0.00 in 0 W/m2
04:44 40.3 °F 39 °F 29.98 in East 0.1 mph 3 mph 95% 0.00 in 0 W/m2
04:49 40.3 °F 39 °F 29.98 in Calm   3 mph 95% 0.00 in 0 W/m2
04:54 40.4 °F 39.1 °F 29.98 in East 0.2 mph 3 mph 95% 0.00 in 0 W/m2
04:59 40.4 °F 39.1 °F 29.97 in Calm   3 mph 95% 0.00 in 0 W/m2
05:04 40.4 °F 39.1 °F 29.97 in Calm   3 mph 95% 0.00 in 0 W/m2
05:09 40.4 °F 39.1 °F 29.97 in Calm     95% 0.00 in 0 W/m2
05:14 40.4 °F 39 °F 29.97 in Calm     94.9% 0.00 in 0 W/m2
05:19 40.4 °F 38.8 °F 29.97 in Calm     94% 0.00 in 0 W/m2
05:23 40.4 °F 38.8 °F 29.98 in Calm     94% 0.00 in 0 W/m2
05:29 40.4 °F 38.8 °F 29.97 in Calm   1 mph 94% 0.00 in 0 W/m2
05:34 40.4 °F 38.8 °F 29.97 in Calm   2 mph 94% 0.00 in 0 W/m2
05:39 40.3 °F 38.7 °F 29.97 in Calm   2 mph 94% 0.00 in 0 W/m2
05:44 40.2 °F 38.6 °F 29.97 in East 0.1 mph 3 mph 94% 0.00 in 0 W/m2
05:49 40.1 °F 38.6 °F 29.97 in Calm   3 mph 94% 0.00 in 0 W/m2
05:54 40.1 °F 38.5 °F 29.97 in Calm   3 mph 94% 0.00 in 0 W/m2
05:59 39.9 °F 38.3 °F 29.97 in East 0.1 mph 3 mph 94% 0.00 in 0 W/m2
06:04 39.8 °F 38.2 °F 29.96 in Calm   3 mph 94% 0.00 in 0 W/m2
06:09 39.7 °F 38.1 °F 29.97 in Calm     94% 0.00 in 0 W/m2
06:14 39.6 °F 38 °F 29.97 in Calm     94% 0.00 in 0 W/m2
06:19 39.5 °F 37.9 °F 29.96 in Calm   1 mph 94% 0.00 in 0 W/m2
06:24 39.4 °F 37.8 °F 29.97 in Calm   1 mph 94% 0.00 in 0 W/m2
06:29 39.4 °F 37.8 °F 29.97 in ENE 0.1 mph 2 mph 94% 0.00 in 0 W/m2
06:34 39.3 °F 37.8 °F 29.97 in Calm   2 mph 94% 0.00 in 0 W/m2
06:39 39.3 °F 37.7 °F 29.96 in Calm     94% 0.00 in 0 W/m2
06:44 39.3 °F 37.7 °F 29.96 in Calm     94% 0.00 in 0 W/m2
06:49 39.1 °F 37.6 °F 29.96 in Calm   1 mph 94% 0.00 in 0 W/m2
06:54 39 °F 37.4 °F 29.96 in Calm   1 mph 94% 0.00 in 0 W/m2
06:59 38.9 °F 37.3 °F 29.96 in Calm   1 mph 94% 0.00 in 0 W/m2
07:04 38.8 °F 37.2 °F 29.96 in Calm   1 mph 94% 0.00 in 0 W/m2
07:09 38.7 °F 37.2 °F 29.96 in Calm   1 mph 94% 0.00 in 0 W/m2
07:14 38.7 °F 37.1 °F 29.96 in Calm   1 mph 94% 0.00 in 0 W/m2
07:19 38.7 °F 37.1 °F 29.96 in Calm   1 mph 94% 0.00 in 0 W/m2
07:24 38.6 °F 37 °F 29.96 in Calm   1 mph 94% 0.00 in 0 W/m2
07:29 38.6 °F 37 °F 29.97 in Calm   1 mph 94% 0.00 in 5 W/m2
07:34 38.6 °F 37 °F 29.97 in NE 0.1 mph 3 mph 94% 0.00 in 7 W/m2
07:39 38.6 °F 37 °F 29.97 in Calm   3 mph 94% 0.00 in 11 W/m2
07:44 38.6 °F 37 °F 29.97 in Calm   3 mph 94% 0.00 in 12 W/m2
07:49 38.6 °F 37 °F 29.97 in Calm   3 mph 94% 0.00 in 16 W/m2
07:54 38.6 °F 37 °F 29.97 in Calm   3 mph 94% 0.00 in 19 W/m2
07:59 38.7 °F 37.1 °F 29.97 in Calm   3 mph 94% 0.00 in 23 W/m2
08:09 38.8 °F 37.2 °F 29.97 in Calm     94% 0.00 in 30 W/m2
08:14 38.8 °F 37.3 °F 29.97 in Calm     94.2% 0.00 in 40 W/m2
08:19 38.8 °F 37.3 °F 29.97 in North 0.2 mph 2 mph 94.2% 0.00 in 47 W/m2
08:24 38.9 °F 37.6 °F 29.97 in Calm   2 mph 95% 0.00 in 47 W/m2
08:29 39.1 °F 37.8 °F 29.97 in North 0.1 mph 2 mph 95% 0.00 in 54 W/m2
08:34 39.1 °F 37.8 °F 29.97 in NNE 0.1 mph 2 mph 95% 0.00 in 67 W/m2
08:39 39.1 °F 37.8 °F 29.97 in NNE 0.2 mph 3 mph 95% 0.00 in 77 W/m2
08:44 39.1 °F 37.8 °F 29.98 in NNE 0.1 mph 3 mph 95% 0.00 in 84 W/m2
08:49 39.3 °F 38 °F 29.98 in Calm   3 mph 95% 0.00 in 79 W/m2
08:54 39.4 °F 38.1 °F 29.98 in Calm   3 mph 95% 0.00 in 67 W/m2
08:59 39.5 °F 38.2 °F 29.98 in Calm   3 mph 95% 0.00 in 63 W/m2
09:04 39.6 °F 38.3 °F 29.98 in NNE 0.3 mph 3 mph 95% 0.00 in 88 W/m2
09:09 39.7 °F 38.3 °F 29.99 in Calm   3 mph 95% 0.00 in 74 W/m2
09:14 39.6 °F 38.3 °F 29.99 in Calm   3 mph 95% 0.00 in 79 W/m2
09:19 39.6 °F 38.3 °F 29.99 in Calm   3 mph 95% 0.00 in 95 W/m2
09:24 39.6 °F 38.3 °F 29.99 in Calm   3 mph 95% 0.00 in 111 W/m2
09:29 39.8 °F 38.4 °F 29.99 in NNE 0.3 mph 3 mph 95% 0.00 in 130 W/m2
09:34 39.8 °F 38.5 °F 29.99 in Calm   3 mph 95% 0.00 in 142 W/m2
09:39 40 °F 38.7 °F 29.99 in Calm     95% 0.00 in 206 W/m2
09:44 40.3 °F 39 °F 29.99 in NNE 0.2 mph 3 mph 95% 0.00 in 338 W/m2
09:49 40.9 °F 39.6 °F 29.98 in NE 0.6 mph 4 mph 95% 0.00 in 172 W/m2
09:54 41.1 °F 39.8 °F 29.98 in NE 0.2 mph 4 mph 95% 0.00 in 169 W/m2
09:59 41.2 °F 39.8 °F 29.98 in NE 0.6 mph 4 mph 94.6% 0.00 in 172 W/m2
10:04 41.1 °F 39.5 °F 29.98 in NE 0.6 mph 4 mph 94% 0.00 in 172 W/m2
10:09 41.2 °F 39.7 °F 29.98 in NNE 0.8 mph 4 mph 94% 0.00 in 202 W/m2
10:14 41.4 °F 39.8 °F 29.97 in Calm   4 mph 94% 0.00 in 174 W/m2
10:19 41.6 °F 40 °F 29.97 in NNE 0.5 mph 4 mph 94% 0.00 in 211 W/m2
10:24 41.9 °F 40.1 °F 29.97 in NE 1.1 mph 4 mph 93.3% 0.00 in 213 W/m2
10:29 42.3 °F 40.4 °F 29.97 in Calm   4 mph 93% 0.00 in 202 W/m2
10:34 42.6 °F 40.7 °F 29.97 in NE 0.6 mph 4 mph 93% 0.00 in 265 W/m2
10:39 42.8 °F 40.8 °F 29.97 in ENE 1.9 mph 5 mph 92.5% 0.00 in 265 W/m2
10:44 43 °F 40.9 °F 29.96 in Calm   5 mph 92% 0.00 in 318 W/m2
10:49 43.5 °F 41.3 °F 29.96 in ENE 1 mph 6 mph 92% 0.00 in 341 W/m2
10:54 44.1 °F 41.8 °F 29.95 in NE 1.2 mph 6 mph 91.7% 0.00 in 309 W/m2
10:59 44.3 °F 41.6 °F 29.96 in SE 0.1 mph 6 mph 90.2% 0.00 in 271 W/m2
11:04 44.7 °F 41.9 °F 29.95 in ENE 0.6 mph 6 mph 90% 0.00 in 276 W/m2
11:09 44.9 °F 42 °F 29.96 in ENE 0.7 mph 5 mph 89.4% 0.00 in 311 W/m2
11:14 45.5 °F 42.6 °F 29.96 in NE 0.4 mph 5 mph 89.5% 0.00 in 355 W/m2
11:19 46 °F 42.8 °F 29.95 in NE 0.1 mph 5 mph 88.6% 0.00 in 334 W/m2
11:24 46.4 °F 43.1 °F 29.95 in NNW 0.4 mph 5 mph 88% 0.00 in 499 W/m2
11:29 47.1 °F 43.7 °F 29.95 in NNE 0.7 mph 5 mph 87.9% 0.00 in 457 W/m2
11:34 47.5 °F 43.4 °F 29.95 in ENE 0.4 mph 5 mph 85.5% 0.00 in 193 W/m2
11:39 47.7 °F 43.6 °F 29.94 in Calm   3 mph 85.4% 0.00 in 483 W/m2
11:44 48.1 °F 43.8 °F 29.94 in NNW 0.4 mph 4 mph 85% 0.00 in 369 W/m2
11:49 48.6 °F 44.5 °F 29.93 in NW 0.5 mph 4 mph 85.4% 0.00 in 367 W/m2
11:54 49.2 °F 44.6 °F 29.93 in North 0.5 mph 4 mph 84.2% 0.00 in 432 W/m2
11:59 49.7 °F 44.5 °F 29.93 in ENE 2.3 mph 6 mph 82.1% 0.00 in 476 W/m2
12:00 49.9 °F 44.3 °F 29.93 in Calm   6 mph 81% 0.00 in 394 W/m2
12:09 50.1 °F 44.1 °F 29.93 in East 1.6 mph 5 mph 79.8% 0.00 in 162 W/m2
12:14 49.9 °F 44 °F 29.93 in East 0.3 mph 5 mph 80% 0.00 in 165 W/m2
12:19 50 °F 44.4 °F 29.92 in ENE 0.5 mph 5 mph 80.8% 0.00 in 169 W/m2
12:24 50.1 °F 44.3 °F 29.92 in Calm   5 mph 80.3% 0.00 in 172 W/m2
12:29 50.2 °F 44.3 °F 29.92 in ENE 0.7 mph 5 mph 80.2% 0.00 in 207 W/m2
12:34 50.2 °F 44.2 °F 29.91 in ENE 0.5 mph 5 mph 79.7% 0.00 in 207 W/m2
12:39 50.3 °F 44.1 °F 29.92 in ENE 0.7 mph 6 mph 79.2% 0.00 in 236 W/m2
12:44 50.4 °F 44.1 °F 29.91 in ENE 2 mph 6 mph 78.8% 0.00 in 237 W/m2
12:49 50.7 °F 44.2 °F 29.91 in NE 0.8 mph 6 mph 78.5% 0.00 in 287 W/m2
12:54 51 °F 44.4 °F 29.91 in NE 0.5 mph 6 mph 78% 0.00 in 304 W/m2
12:59 51.5 °F 44.7 °F 29.91 in Calm   6 mph 77.5% 0.00 in 304 W/m2
13:04 52 °F 44.8 °F 29.91 in NE 0.9 mph 6 mph 76.4% 0.00 in 322 W/m2
13:09 52.4 °F 44.9 °F 29.90 in NE 0.4 mph 4 mph 75.6% 0.00 in 304 W/m2
13:14 52.6 °F 44.7 °F 29.91 in NE 0.5 mph 4 mph 74.5% 0.00 in 244 W/m2
13:19 52.6 °F 44.8 °F 29.91 in NE 0.5 mph 4 mph 74.7% 0.00 in 241 W/m2
13:20 52.6 °F 44.9 °F 29.90 in NE 1.6 mph 4 mph 75% 0.00 in 218 W/m2
13:30 52.8 °F 44.8 °F 29.89 in NE 1 mph 6 mph 74% 0.00 in 250 W/m2
14:00 54.2 °F 45 °F 29.88 in Calm   7 mph 71% 0.00 in 254 W/m2
14:30 54.7 °F 44.7 °F 29.88 in East 2 mph 9 mph 69% 0.00 in 202 W/m2
15:00 54.2 °F 43.9 °F 29.88 in ENE 2 mph 11 mph 68% 0.00 in 157 W/m2
15:30 54.6 °F 44.7 °F 29.86 in East 2 mph 11 mph 69% 0.00 in 152 W/m2
16:09 54.5 °F 44.6 °F 29.87 in ENE 2.4 mph 9 mph 69% 0.00 in 91 W/m2
16:14 54.5 °F 44.4 °F 29.87 in ENE 2.1 mph 9 mph 68.8% 0.00 in 58 W/m2
16:19 54.3 °F 44.4 °F 29.87 in ENE 0.5 mph 9 mph 68.9% 0.00 in 56 W/m2
16:24 54.2 °F 44.2 °F 29.87 in ENE 0.2 mph 9 mph 69% 0.00 in 56 W/m2
16:29 54 °F 44.1 °F 29.87 in ENE 1 mph 9 mph 69.1% 0.00 in 60 W/m2
16:34 54 °F 44.8 °F 29.87 in ENE 2 mph 11 mph 71.1% 0.00 in 69 W/m2
16:39 53.9 °F 44.2 °F 29.86 in ENE 1.4 mph 11 mph 69.6% 0.00 in 65 W/m2
16:44 53.7 °F 43.9 °F 29.86 in East 3.2 mph 11 mph 69.3% 0.00 in 49 W/m2
16:49 53.5 °F 43.8 °F 29.86 in ENE 0.6 mph 11 mph 69.6% 0.00 in 51 W/m2
16:54 53.2 °F 43.8 °F 29.86 in East 0.8 mph 11 mph 70.3% 0.00 in 21 W/m2
16:59 52.9 °F 43.7 °F 29.87 in East 3.8 mph 11 mph 70.8% 0.00 in 11 W/m2
17:04 52.7 °F 43.6 °F 29.86 in ENE 1.6 mph 11 mph 71% 0.00 in 9 W/m2
17:09 52.5 °F 43.7 °F 29.86 in ENE 2.4 mph 6 mph 71.8% 0.00 in 7 W/m2
17:14 52.3 °F 43.5 °F 29.87 in ENE 3.8 mph 11 mph 72% 0.00 in 11 W/m2
17:19 52.1 °F 43.4 °F 29.87 in ENE 1.4 mph 11 mph 72% 0.00 in 12 W/m2
17:24 52 °F 43.4 °F 29.87 in ENE 2.3 mph 11 mph 72.2% 0.00 in 12 W/m2
17:29 51.9 °F 43.5 °F 29.87 in ENE 0.8 mph 11 mph 73% 0.00 in 12 W/m2
17:34 51.8 °F 43.4 °F 29.87 in ENE 1.6 mph 11 mph 73% 0.00 in 12 W/m2
17:39 51.7 °F 43.3 °F 29.87 in East 1.5 mph 8 mph 73% 0.00 in 7 W/m2
17:44 51.6 °F 43.2 °F 29.88 in East 0.5 mph 8 mph 73% 0.00 in 0 W/m2
17:49 51.5 °F 43.1 °F 29.88 in East 1 mph 8 mph 73% 0.00 in 0 W/m2
17:54 51.4 °F 43.1 °F 29.88 in ENE 0.5 mph 8 mph 73.1% 0.00 in 0 W/m2
17:59 51.3 °F 43.3 °F 29.88 in East 1.1 mph 8 mph 74% 0.00 in 0 W/m2
18:04 51.3 °F 43.3 °F 29.88 in ENE 0.3 mph 8 mph 74% 0.00 in 0 W/m2
18:09 51.2 °F 43.2 °F 29.88 in ENE 0.1 mph 5 mph 74% 0.00 in 0 W/m2
18:14 51.2 °F 43.2 °F 29.88 in ENE 1 mph 5 mph 74% 0.00 in 0 W/m2
18:19 51.2 °F 43.2 °F 29.89 in ENE 1 mph 5 mph 74% 0.00 in 0 W/m2
18:24 51.2 °F 43.3 °F 29.88 in East 1.2 mph 6 mph 74.3% 0.00 in 0 W/m2
18:29 51.2 °F 43.5 °F 29.88 in ENE 1 mph 6 mph 75% 0.00 in 0 W/m2
18:34 51.1 °F 43.6 °F 29.87 in ENE 0.3 mph 6 mph 75.3% 0.00 in 0 W/m2
18:39 51.1 °F 43.6 °F 29.88 in East 0.8 mph 5 mph 75.4% 0.00 in 0 W/m2
18:44 51.1 °F 43.8 °F 29.87 in ENE 0.3 mph 5 mph 76% 0.00 in 0 W/m2
18:49 51.1 °F 43.8 °F 29.87 in ENE 0.6 mph 5 mph 76% 0.00 in 0 W/m2
18:54 51.1 °F 43.8 °F 29.88 in ENE 0.1 mph 5 mph 76% 0.00 in 0 W/m2
18:59 51.1 °F 43.8 °F 29.88 in ENE 2.4 mph 6 mph 76% 0.00 in 0 W/m2
19:04 51.1 °F 43.8 °F 29.88 in ENE 0.1 mph 6 mph 76% 0.00 in 0 W/m2
19:09 51 °F 43.7 °F 29.88 in ENE 0.8 mph 4 mph 76% 0.00 in 0 W/m2
19:14 51 °F 43.7 °F 29.87 in NE 0.8 mph 6 mph 76% 0.00 in 0 W/m2
19:19 50.9 °F 44 °F 29.87 in NE 2.6 mph 12 mph 77% 0.00 in 0 W/m2
19:24 50.9 °F 43.9 °F 29.87 in ENE 1.6 mph 12 mph 77% 0.00 in 0 W/m2
19:29 50.8 °F 43.9 °F 29.87 in ENE 2 mph 12 mph 77% 0.00 in 0 W/m2
19:34 50.8 °F 44.1 °F 29.87 in ENE 2.5 mph 12 mph 77.9% 0.00 in 0 W/m2
19:39 50.7 °F 44.1 °F 29.87 in NE 1.1 mph 6 mph 78% 0.00 in 0 W/m2
19:44 50.7 °F 44.1 °F 29.87 in NE 1 mph 6 mph 78% 0.00 in 0 W/m2
19:49 50.6 °F 44 °F 29.87 in NE 1.3 mph 7 mph 78% 0.00 in 0 W/m2
19:54 50.6 °F 44.3 °F 29.87 in ENE 0.8 mph 7 mph 79% 0.00 in 0 W/m2
19:59 50.5 °F 44.1 °F 29.87 in ENE 1.7 mph 7 mph 78.6% 0.00 in 0 W/m2
20:00 50.5 °F 43.9 °F 29.87 in Calm   7 mph 78% 0.00 in 0 W/m2
20:09 50.5 °F 44.1 °F 29.86 in East 1.9 mph 8 mph 78.5% 0.00 in 0 W/m2
20:14 50.5 °F 43.9 °F 29.85 in NE 1.9 mph 9 mph 78% 0.00 in 0 W/m2
20:19 50.5 °F 44.1 °F 29.85 in NE 3.1 mph 9 mph 78.7% 0.00 in 0 W/m2
20:24 50.4 °F 44.2 °F 29.85 in ENE 2.9 mph 9 mph 79% 0.00 in 0 W/m2
20:29 50.4 °F 44 °F 29.85 in ENE 4.6 mph 11 mph 78.7% 0.00 in 0 W/m2
20:34 50.3 °F 43.7 °F 29.85 in ENE 1.6 mph 11 mph 78% 0.00 in 0 W/m2
20:39 50.3 °F 43.7 °F 29.85 in ENE 1.6 mph 9 mph 78% 0.00 in 0 W/m2
20:44 50.3 °F 43.7 °F 29.84 in ENE 3.5 mph 12 mph 78% 0.00 in 0 W/m2
20:49 50.2 °F 43.6 °F 29.84 in ENE 3.3 mph 12 mph 78% 0.00 in 0 W/m2
20:54 50.1 °F 43.4 °F 29.84 in NE 3.8 mph 12 mph 77.8% 0.00 in 0 W/m2
20:59 50.1 °F 43.3 °F 29.84 in ENE 4.1 mph 14 mph 77.4% 0.00 in 0 W/m2
21:04 50 °F 43.1 °F 29.84 in ENE 2.9 mph 14 mph 77% 0.00 in 0 W/m2
21:09 50 °F 43.1 °F 29.84 in ENE 3.3 mph 14 mph 77% 0.00 in 0 W/m2
21:14 49.9 °F 43 °F 29.84 in ENE 3 mph 14 mph 77% 0.00 in 0 W/m2
21:19 49.9 °F 43 °F 29.84 in ENE 1.6 mph 14 mph 77.2% 0.00 in 0 W/m2
21:24 49.9 °F 43 °F 29.84 in ENE 3 mph 14 mph 77% 0.00 in 0 W/m2
21:29 49.8 °F 42.9 °F 29.85 in ENE 3 mph 14 mph 77% 0.00 in 0 W/m2
21:34 49.8 °F 43 °F 29.84 in ENE 3.7 mph 14 mph 77.3% 0.00 in 0 W/m2
21:39 49.8 °F 42.9 °F 29.84 in ENE 2.9 mph 14 mph 77% 0.00 in 0 W/m2
21:44 49.8 °F 42.9 °F 29.84 in ENE 5.1 mph 14 mph 77% 0.00 in 0 W/m2
21:49 49.7 °F 42.8 °F 29.83 in ENE 2.9 mph 14 mph 77% 0.00 in 0 W/m2
21:54 49.7 °F 43.1 °F 29.83 in ENE 4.8 mph 14 mph 77.9% 0.00 in 0 W/m2
21:59 49.7 °F 43 °F 29.82 in ENE 4.2 mph 14 mph 77.7% 0.00 in 0 W/m2
22:04 49.7 °F 43.1 °F 29.81 in NE 4.5 mph 14 mph 78% 0.00 in 0 W/m2
22:09 49.7 °F 43.1 °F 29.80 in ENE 4.3 mph 13 mph 78% 0.00 in 0 W/m2
22:14 49.6 °F 43 °F 29.80 in ENE 3.4 mph 14 mph 78% 0.00 in 0 W/m2
22:19 49.6 °F 43 °F 29.80 in ENE 2.7 mph 14 mph 78% 0.00 in 0 W/m2
22:24 49.5 °F 43.2 °F 29.80 in NE 1.5 mph 14 mph 78.6% 0.00 in 0 W/m2
22:29 49.5 °F 43 °F 29.80 in ENE 3.8 mph 14 mph 78.3% 0.00 in 0 W/m2
22:34 49.5 °F 42.9 °F 29.80 in ENE 4.4 mph 14 mph 78% 0.00 in 0 W/m2
22:39 49.5 °F 43 °F 29.82 in East 1.4 mph 11 mph 78.3% 0.00 in 0 W/m2
22:44 49.5 °F 43.3 °F 29.81 in ENE 2.6 mph 11 mph 79% 0.00 in 0 W/m2
22:49 49.5 °F 43.3 °F 29.80 in ENE 2.6 mph 11 mph 79% 0.00 in 0 W/m2
22:54 49.5 °F 43.3 °F 29.79 in ENE 2.3 mph 11 mph 79% 0.00 in 0 W/m2
22:59 49.5 °F 43.3 °F 29.78 in NE 2.9 mph 12 mph 79% 0.00 in 0 W/m2
23:04 49.5 °F 43.3 °F 29.80 in ENE 3 mph 12 mph 79% 0.00 in 0 W/m2
23:09 49.5 °F 43.3 °F 29.79 in ENE 1.9 mph 9 mph 79% 0.00 in 0 W/m2
23:14 49.5 °F 43.3 °F 29.79 in East 1 mph 9 mph 79% 0.00 in 0 W/m2
23:19 49.6 °F 43.4 °F 29.79 in ENE 3.1 mph 11 mph 79% 0.00 in 0 W/m2
23:24 49.6 °F 43.4 °F 29.79 in ENE 1.8 mph 11 mph 79% 0.00 in 0 W/m2
23:29 49.6 °F 43.4 °F 29.79 in ENE 0.8 mph 11 mph 79% 0.00 in 0 W/m2
23:34 49.7 °F 43.5 °F 29.79 in ENE 1.7 mph 11 mph 79.3% 0.00 in 0 W/m2
23:39 49.7 °F 43.8 °F 29.80 in ENE 1.8 mph 8 mph 80% 0.00 in 0 W/m2
23:44 49.7 °F 44.1 °F 29.80 in ENE 2.4 mph 8 mph 80.9% 0.01 in 0 W/m2
23:49 49.6 °F 44.5 °F 29.79 in NE 1.7 mph 9 mph 82.3% 0.01 in 0 W/m2
23:54 49.5 °F 44.5 °F 29.78 in NE 1.2 mph 9 mph 83% 0.01 in 0 W/m2
23:59 49.2 °F 44.6 °F 29.78 in NE 1.8 mph 10 mph 84% 0.01 in 0 W/m2
Hartford County Weather
Compliments of Weather Underground - 2 mb